Terminal Aerodrome Forecast
Issued by NWS Corpus Christi, TX

Home | Current Version | Previous Version | Text Only | Print | Product List | Glossary On
Versions: 1 2 3 4 5 6 7 8 9 10 11 12 13 14 15 16
000
FTUS44 KCRP 060530
TAFVCT
TAF
KVCT 060530Z 0606/0706 13013KT P6SM VCSH BKN015 OVC060
      TEMPO 0606/0609 -SHRA SCT015 BKN028
     FM061500 14015G21KT P6SM SCT030 OVC060
     FM061900 15017G24KT P6SM VCSH SCT035 BKN070
     FM070200 13011KT P6SM BKN015 OVC040
     FM070500 12008KT P6SM BKN007 OVC015=

USA.gov is the U.S. government's official web portal to all federal, state and local government web resources and services.